sensor_id;sensor_type;location;lat;lon;timestamp;pressure;altitude;pressure_sealevel;temperature;humidity
5812;BME280;2932;52.400;9.558;2023-04-07T00:00:57;101004.03;;;12.86;47.06
5812;BME280;2932;52.400;9.558;2023-04-07T00:03:22;101009.75;;;12.78;47.01
5812;BME280;2932;52.400;9.558;2023-04-07T00:05:48;101013.22;;;12.75;47.18
5812;BME280;2932;52.400;9.558;2023-04-07T00:08:13;101002.25;;;12.66;47.09
5812;BME280;2932;52.400;9.558;2023-04-07T00:10:39;101010.84;;;12.49;47.24
5812;BME280;2932;52.400;9.558;2023-04-07T00:13:05;101014.78;;;12.48;47.26
5812;BME280;2932;52.400;9.558;2023-04-07T00:15:30;101019.66;;;12.39;47.77
5812;BME280;2932;52.400;9.558;2023-04-07T00:17:56;101012.13;;;12.51;47.74
5812;BME280;2932;52.400;9.558;2023-04-07T00:20:21;101010.63;;;12.42;48.03
5812;BME280;2932;52.400;9.558;2023-04-07T00:22:47;101011.13;;;12.31;48.19
5812;BME280;2932;52.400;9.558;2023-04-07T00:25:12;101012.38;;;12.34;48.17
5812;BME280;2932;52.400;9.558;2023-04-07T00:27:37;101014.13;;;12.26;48.45
5812;BME280;2932;52.400;9.558;2023-04-07T00:30:03;101011.13;;;12.31;48.11
5812;BME280;2932;52.400;9.558;2023-04-07T00:32:29;101013.88;;;12.31;48.22
5812;BME280;2932;52.400;9.558;2023-04-07T00:34:54;101009.97;;;12.32;48.11
5812;BME280;2932;52.400;9.558;2023-04-07T00:37:19;101008.56;;;12.14;48.52
5812;BME280;2932;52.400;9.558;2023-04-07T00:39:45;101023.13;;;12.23;48.43
5812;BME280;2932;52.400;9.558;2023-04-07T00:42:11;101010.41;;;12.34;48.47
5812;BME280;2932;52.400;9.558;2023-04-07T00:44:36;101011.09;;;12.07;48.85
5812;BME280;2932;52.400;9.558;2023-04-07T00:47:02;101014.56;;;12.04;48.55
5812;BME280;2932;52.400;9.558;2023-04-07T00:49:27;101013.41;;;12.05;48.66
5812;BME280;2932;52.400;9.558;2023-04-07T00:51:54;101013.66;;;11.88;48.50
5812;BME280;2932;52.400;9.558;2023-04-07T00:54:20;101017.47;;;11.95;48.39
5812;BME280;2932;52.400;9.558;2023-04-07T00:56:47;101010.75;;;11.84;48.28
5812;BME280;2932;52.400;9.558;2023-04-07T00:59:13;101009.84;;;11.92;48.39
5812;BME280;2932;52.400;9.558;2023-04-07T01:01:44;101004.06;;;11.85;48.37
5812;BME280;2932;52.400;9.558;2023-04-07T01:04:18;100999.78;;;11.88;48.29
5812;BME280;2932;52.400;9.558;2023-04-07T01:06:49;101007.19;;;11.96;48.21
5812;BME280;2932;52.400;9.558;2023-04-07T01:09:23;101002.19;;;12.01;48.25
5812;BME280;2932;52.400;9.558;2023-04-07T01:14:32;101003.13;;;12.18;47.52
5812;BME280;2932;52.400;9.558;2023-04-07T01:17:04;100997.94;;;12.04;47.65
5812;BME280;2932;52.400;9.558;2023-04-07T01:19:36;101002.66;;;12.03;47.88
5812;BME280;2932;52.400;9.558;2023-04-07T01:22:10;100997.81;;;12.00;47.97
5812;BME280;2932;52.400;9.558;2023-04-07T01:30:29;101009.97;;;11.96;47.61
5812;BME280;2932;52.400;9.558;2023-04-07T01:32:57;101002.44;;;12.09;47.92
5812;BME280;2932;52.400;9.558;2023-04-07T01:35:23;101009.97;;;11.96;47.98
5812;BME280;2932;52.400;9.558;2023-04-07T01:37:51;101000.47;;;12.09;47.95
5812;BME280;2932;52.400;9.558;2023-04-07T01:40:17;100999.56;;;11.93;48.09
5812;BME280;2932;52.400;9.558;2023-04-07T01:42:44;101000.00;;;12.07;47.82
5812;BME280;2932;52.400;9.558;2023-04-07T01:45:11;100998.84;;;12.08;48.06
5812;BME280;2932;52.400;9.558;2023-04-07T01:47:38;100997.13;;;12.16;47.89
5812;BME280;2932;52.400;9.558;2023-04-07T01:50:04;100999.91;;;11.91;48.36
5812;BME280;2932;52.400;9.558;2023-04-07T01:52:32;101005.69;;;11.98;48.06
5812;BME280;2932;52.400;9.558;2023-04-07T01:54:58;101000.84;;;11.95;48.36
5812;BME280;2932;52.400;9.558;2023-04-07T01:57:23;101001.94;;;11.70;48.59
5812;BME280;2932;52.400;9.558;2023-04-07T01:59:48;101001.41;;;11.89;48.27
5812;BME280;2932;52.400;9.558;2023-04-07T02:02:14;101005.28;;;11.76;48.38
5812;BME280;2932;52.400;9.558;2023-04-07T02:07:21;100991.22;;;11.81;48.38
5812;BME280;2932;52.400;9.558;2023-04-07T02:09:50;100999.16;;;11.70;48.54
5812;BME280;2932;52.400;9.558;2023-04-07T02:12:18;100997.88;;;11.67;48.53
5812;BME280;2932;52.400;9.558;2023-04-07T02:14:44;101003.88;;;11.69;48.51
5812;BME280;2932;52.400;9.558;2023-04-07T02:17:10;100995.31;;;11.62;48.46
5812;BME280;2932;52.400;9.558;2023-04-07T02:19:36;100998.56;;;11.52;48.82
5812;BME280;2932;52.400;9.558;2023-04-07T02:22:02;100992.91;;;11.49;48.73
5812;BME280;2932;52.400;9.558;2023-04-07T02:24:29;100988.28;;;11.53;48.79
5812;BME280;2932;52.400;9.558;2023-04-07T02:26:54;100999.59;;;11.60;48.67
5812;BME280;2932;52.400;9.558;2023-04-07T02:29:20;100992.91;;;11.61;48.77
5812;BME280;2932;52.400;9.558;2023-04-07T02:31:45;101002.50;;;11.63;48.58
5812;BME280;2932;52.400;9.558;2023-04-07T02:34:11;101005.72;;;11.65;48.44
5812;BME280;2932;52.400;9.558;2023-04-07T02:36:36;101007.81;;;11.56;48.54
5812;BME280;2932;52.400;9.558;2023-04-07T02:39:01;101003.88;;;11.57;48.79
5812;BME280;2932;52.400;9.558;2023-04-07T02:41:27;101006.88;;;11.52;48.85
5812;BME280;2932;52.400;9.558;2023-04-07T02:43:53;101007.22;;;11.51;48.48
5812;BME280;2932;52.400;9.558;2023-04-07T02:46:18;101011.34;;;11.45;48.87
5812;BME280;2932;52.400;9.558;2023-04-07T02:48:43;101021.16;;;11.42;48.93
5812;BME280;2932;52.400;9.558;2023-04-07T02:51:09;101014.94;;;11.45;49.03
5812;BME280;2932;52.400;9.558;2023-04-07T02:53:34;101002.28;;;11.56;48.79
5812;BME280;2932;52.400;9.558;2023-04-07T02:55:59;101012.75;;;11.51;49.07
5812;BME280;2932;52.400;9.558;2023-04-07T02:58:25;101007.34;;;11.54;48.95
5812;BME280;2932;52.400;9.558;2023-04-07T03:00:50;101001.69;;;11.51;48.96
5812;BME280;2932;52.400;9.558;2023-04-07T03:03:15;101004.91;;;11.53;48.90
5812;BME280;2932;52.400;9.558;2023-04-07T03:05:41;100999.47;;;11.44;48.99
5812;BME280;2932;52.400;9.558;2023-04-07T03:08:06;101009.41;;;11.45;48.96
5812;BME280;2932;52.400;9.558;2023-04-07T03:10:31;101002.81;;;11.50;48.99
5812;BME280;2932;52.400;9.558;2023-04-07T03:12:57;101002.91;;;11.41;48.97
5812;BME280;2932;52.400;9.558;2023-04-07T03:15:22;101009.06;;;11.47;48.93
5812;BME280;2932;52.400;9.558;2023-04-07T03:17:48;101003.88;;;11.24;49.25
5812;BME280;2932;52.400;9.558;2023-04-07T03:20:13;101000.44;;;11.15;49.46
5812;BME280;2932;52.400;9.558;2023-04-07T03:22:38;101004.22;;;11.23;49.32
5812;BME280;2932;52.400;9.558;2023-04-07T03:25:04;101000.09;;;11.29;49.24
5812;BME280;2932;52.400;9.558;2023-04-07T03:27:29;100999.16;;;11.13;49.43
5812;BME280;2932;52.400;9.558;2023-04-07T03:29:55;100997.06;;;11.22;49.40
5812;BME280;2932;52.400;9.558;2023-04-07T03:32:20;101002.88;;;10.96;50.03
5812;BME280;2932;52.400;9.558;2023-04-07T03:34:45;101006.50;;;10.88;50.03
5812;BME280;2932;52.400;9.558;2023-04-07T03:37:11;101006.13;;;10.77;50.12
5812;BME280;2932;52.400;9.558;2023-04-07T03:39:36;101003.63;;;10.84;49.98
5812;BME280;2932;52.400;9.558;2023-04-07T03:42:02;101003.91;;;10.71;49.84
5812;BME280;2932;52.400;9.558;2023-04-07T03:44:27;101004.38;;;10.73;50.14
5812;BME280;2932;52.400;9.558;2023-04-07T03:46:53;100998.22;;;10.67;49.91
5812;BME280;2932;52.400;9.558;2023-04-07T03:49:18;101006.41;;;10.63;49.89
5812;BME280;2932;52.400;9.558;2023-04-07T03:51:44;101004.75;;;10.83;50.00
5812;BME280;2932;52.400;9.558;2023-04-07T03:54:09;101007.00;;;10.69;49.91
5812;BME280;2932;52.400;9.558;2023-04-07T03:56:35;101014.69;;;10.84;49.91
5812;BME280;2932;52.400;9.558;2023-04-07T03:59:01;101011.91;;;10.84;49.76
5812;BME280;2932;52.400;9.558;2023-04-07T04:01:27;101011.78;;;10.81;49.51
5812;BME280;2932;52.400;9.558;2023-04-07T04:03:52;101005.06;;;10.69;49.91
5812;BME280;2932;52.400;9.558;2023-04-07T04:06:17;101010.72;;;10.73;49.82
5812;BME280;2932;52.400;9.558;2023-04-07T04:08:43;101011.88;;;10.72;49.91
5812;BME280;2932;52.400;9.558;2023-04-07T04:11:08;101011.66;;;10.98;49.38
5812;BME280;2932;52.400;9.558;2023-04-07T04:13:33;101026.78;;;11.00;49.37
5812;BME280;2932;52.400;9.558;2023-04-07T04:15:58;101020.84;;;10.69;49.79
5812;BME280;2932;52.400;9.558;2023-04-07T04:18:24;101024.75;;;10.68;50.02
5812;BME280;2932;52.400;9.558;2023-04-07T04:20:49;101029.28;;;10.73;50.11
5812;BME280;2932;52.400;9.558;2023-04-07T04:23:15;101028.00;;;10.91;49.74
5812;BME280;2932;52.400;9.558;2023-04-07T04:25:40;101032.31;;;10.59;50.02
5812;BME280;2932;52.400;9.558;2023-04-07T04:28:06;101033.50;;;10.49;49.99
5812;BME280;2932;52.400;9.558;2023-04-07T04:30:31;101039.66;;;10.55;50.13
5812;BME280;2932;52.400;9.558;2023-04-07T04:32:57;101038.06;;;10.24;50.76
5812;BME280;2932;52.400;9.558;2023-04-07T04:35:22;101045.25;;;10.46;50.26
5812;BME280;2932;52.400;9.558;2023-04-07T04:37:48;101046.31;;;10.33;50.60
5812;BME280;2932;52.400;9.558;2023-04-07T04:40:13;101044.28;;;10.42;50.29
5812;BME280;2932;52.400;9.558;2023-04-07T04:42:39;101045.09;;;10.43;50.07
5812;BME280;2932;52.400;9.558;2023-04-07T04:45:05;101050.06;;;10.58;50.30
5812;BME280;2932;52.400;9.558;2023-04-07T04:47:31;101059.88;;;10.47;50.30
5812;BME280;2932;52.400;9.558;2023-04-07T04:49:56;101057.78;;;10.44;50.37
5812;BME280;2932;52.400;9.558;2023-04-07T04:52:21;101051.53;;;10.55;50.41
5812;BME280;2932;52.400;9.558;2023-04-07T04:54:47;101054.31;;;10.55;50.33
5812;BME280;2932;52.400;9.558;2023-04-07T04:57:12;101058.84;;;10.60;49.97
5812;BME280;2932;52.400;9.558;2023-04-07T04:59:37;101052.09;;;10.69;49.64
5812;BME280;2932;52.400;9.558;2023-04-07T05:02:04;101060.25;;;10.66;49.94
5812;BME280;2932;52.400;9.558;2023-04-07T05:04:30;101061.16;;;10.49;50.08
5812;BME280;2932;52.400;9.558;2023-04-07T05:06:55;101051.88;;;10.54;50.06
5812;BME280;2932;52.400;9.558;2023-04-07T05:09:21;101061.88;;;10.67;49.94
5812;BME280;2932;52.400;9.558;2023-04-07T05:11:46;101067.28;;;10.63;50.38
5812;BME280;2932;52.400;9.558;2023-04-07T05:14:13;101066.03;;;10.52;50.19
5812;BME280;2932;52.400;9.558;2023-04-07T05:16:38;101074.84;;;10.46;50.32
5812;BME280;2932;52.400;9.558;2023-04-07T05:19:03;101072.91;;;10.46;50.28
5812;BME280;2932;52.400;9.558;2023-04-07T05:21:29;101067.31;;;10.55;50.28
5812;BME280;2932;52.400;9.558;2023-04-07T05:23:54;101065.03;;;10.57;50.23
5812;BME280;2932;52.400;9.558;2023-04-07T05:26:20;101076.38;;;10.64;50.14
5812;BME280;2932;52.400;9.558;2023-04-07T05:28:45;101081.09;;;10.63;49.95
5812;BME280;2932;52.400;9.558;2023-04-07T05:31:11;101074.09;;;10.66;50.16
5812;BME280;2932;52.400;9.558;2023-04-07T05:33:36;101071.94;;;10.72;49.97
5812;BME280;2932;52.400;9.558;2023-04-07T05:36:01;101079.91;;;10.73;49.89
5812;BME280;2932;52.400;9.558;2023-04-07T05:38:27;101073.47;;;10.81;49.63
5812;BME280;2932;52.400;9.558;2023-04-07T05:40:52;101073.91;;;10.92;49.81
5812;BME280;2932;52.400;9.558;2023-04-07T05:43:17;101068.38;;;10.92;49.46
5812;BME280;2932;52.400;9.558;2023-04-07T05:45:43;101069.94;;;11.01;49.66
5812;BME280;2932;52.400;9.558;2023-04-07T05:48:08;101072.16;;;11.08;49.08
5812;BME280;2932;52.400;9.558;2023-04-07T05:50:33;101073.50;;;11.02;49.27
5812;BME280;2932;52.400;9.558;2023-04-07T05:52:59;101076.91;;;11.20;48.96
5812;BME280;2932;52.400;9.558;2023-04-07T05:55:24;101081.28;;;11.09;49.03
5812;BME280;2932;52.400;9.558;2023-04-07T05:57:49;101082.28;;;11.04;49.53
5812;BME280;2932;52.400;9.558;2023-04-07T06:00:15;101086.88;;;11.00;49.20
5812;BME280;2932;52.400;9.558;2023-04-07T06:02:40;101090.84;;;10.90;49.31
5812;BME280;2932;52.400;9.558;2023-04-07T06:05:06;101085.53;;;11.06;49.26
5812;BME280;2932;52.400;9.558;2023-04-07T06:07:31;101077.72;;;11.20;48.68
5812;BME280;2932;52.400;9.558;2023-04-07T06:09:57;101084.50;;;11.11;49.25
5812;BME280;2932;52.400;9.558;2023-04-07T06:12:22;101088.22;;;11.15;48.84
5812;BME280;2932;52.400;9.558;2023-04-07T06:14:54;101090.78;;;11.20;48.91
5812;BME280;2932;52.400;9.558;2023-04-07T06:17:21;101097.06;;;11.29;48.65
5812;BME280;2932;52.400;9.558;2023-04-07T06:19:46;101102.53;;;11.38;48.58
5812;BME280;2932;52.400;9.558;2023-04-07T06:22:11;101099.97;;;11.32;48.64
5812;BME280;2932;52.400;9.558;2023-04-07T06:24:37;101104.63;;;11.20;49.04
5812;BME280;2932;52.400;9.558;2023-04-07T06:27:02;101101.25;;;11.35;48.86
5812;BME280;2932;52.400;9.558;2023-04-07T06:29:31;101100.28;;;11.31;48.83
5812;BME280;2932;52.400;9.558;2023-04-07T06:31:56;101104.56;;;11.28;48.61
5812;BME280;2932;52.400;9.558;2023-04-07T06:34:22;101105.03;;;11.30;48.48
5812;BME280;2932;52.400;9.558;2023-04-07T06:36:47;101115.69;;;11.20;48.44
5812;BME280;2932;52.400;9.558;2023-04-07T06:39:13;101115.34;;;11.21;48.61
5812;BME280;2932;52.400;9.558;2023-04-07T06:41:38;101114.34;;;11.26;48.60
5812;BME280;2932;52.400;9.558;2023-04-07T06:44:07;101117.59;;;11.28;48.44
5812;BME280;2932;52.400;9.558;2023-04-07T06:46:33;101121.97;;;11.50;47.74
5812;BME280;2932;52.400;9.558;2023-04-07T06:48:58;101115.34;;;11.42;47.64
5812;BME280;2932;52.400;9.558;2023-04-07T06:51:23;101124.06;;;11.53;47.45
5812;BME280;2932;52.400;9.558;2023-04-07T06:53:50;101128.47;;;11.33;47.90
5812;BME280;2932;52.400;9.558;2023-04-07T06:56:15;101126.38;;;11.51;47.72
5812;BME280;2932;52.400;9.558;2023-04-07T06:58:41;101127.31;;;11.34;47.68
5812;BME280;2932;52.400;9.558;2023-04-07T07:01:06;101132.06;;;11.33;47.74
5812;BME280;2932;52.400;9.558;2023-04-07T07:03:31;101133.94;;;11.42;47.50
5812;BME280;2932;52.400;9.558;2023-04-07T07:05:58;101136.09;;;11.57;47.47
5812;BME280;2932;52.400;9.558;2023-04-07T07:08:24;101129.91;;;11.72;47.36
5812;BME280;2932;52.400;9.558;2023-04-07T07:10:50;101135.19;;;11.86;47.27
5812;BME280;2932;52.400;9.558;2023-04-07T07:13:15;101129.41;;;11.91;47.06
5812;BME280;2932;52.400;9.558;2023-04-07T07:15:40;101127.72;;;11.98;46.80
5812;BME280;2932;52.400;9.558;2023-04-07T07:18:06;101139.44;;;11.83;46.79
5812;BME280;2932;52.400;9.558;2023-04-07T07:20:31;101149.31;;;11.93;47.05
5812;BME280;2932;52.400;9.558;2023-04-07T07:22:56;101142.00;;;12.00;46.71
5812;BME280;2932;52.400;9.558;2023-04-07T07:25:22;101150.41;;;12.25;46.53
5812;BME280;2932;52.400;9.558;2023-04-07T07:27:50;101152.84;;;12.26;46.01
5812;BME280;2932;52.400;9.558;2023-04-07T07:30:20;101154.66;;;12.10;46.00
5812;BME280;2932;52.400;9.558;2023-04-07T07:32:46;101158.28;;;12.35;45.88
5812;BME280;2932;52.400;9.558;2023-04-07T07:35:11;101166.16;;;12.33;46.02
5812;BME280;2932;52.400;9.558;2023-04-07T07:37:37;101169.03;;;12.37;46.27
5812;BME280;2932;52.400;9.558;2023-04-07T07:40:02;101154.34;;;12.48;46.15
5812;BME280;2932;52.400;9.558;2023-04-07T07:42:29;101163.03;;;12.59;45.99
5812;BME280;2932;52.400;9.558;2023-04-07T07:44:55;101163.50;;;12.73;45.47
5812;BME280;2932;52.400;9.558;2023-04-07T07:47:21;101161.88;;;12.84;44.89
5812;BME280;2932;52.400;9.558;2023-04-07T07:49:46;101169.28;;;12.68;45.06
5812;BME280;2932;52.400;9.558;2023-04-07T07:52:11;101163.81;;;13.08;44.81
5812;BME280;2932;52.400;9.558;2023-04-07T07:54:37;101161.97;;;13.00;44.83
5812;BME280;2932;52.400;9.558;2023-04-07T07:57:02;101166.81;;;13.15;44.53
5812;BME280;2932;52.400;9.558;2023-04-07T07:59:29;101172.94;;;13.33;44.76
5812;BME280;2932;52.400;9.558;2023-04-07T08:01:54;101164.53;;;13.17;44.28
5812;BME280;2932;52.400;9.558;2023-04-07T08:04:19;101170.97;;;13.33;44.61
5812;BME280;2932;52.400;9.558;2023-04-07T08:06:47;101164.63;;;13.61;44.38
5812;BME280;2932;52.400;9.558;2023-04-07T08:09:13;101171.84;;;13.50;44.21
5812;BME280;2932;52.400;9.558;2023-04-07T08:11:38;101172.53;;;13.59;43.56
5812;BME280;2932;52.400;9.558;2023-04-07T08:14:04;101176.03;;;13.44;43.44
5812;BME280;2932;52.400;9.558;2023-04-07T08:16:30;101175.94;;;13.68;43.68
5812;BME280;2932;52.400;9.558;2023-04-07T08:18:55;101179.94;;;13.83;43.44
5812;BME280;2932;52.400;9.558;2023-04-07T08:21:20;101183.13;;;13.97;43.40
5812;BME280;2932;52.400;9.558;2023-04-07T08:23:46;101188.81;;;14.16;43.14
5812;BME280;2932;52.400;9.558;2023-04-07T08:26:11;101185.56;;;14.14;42.28
5812;BME280;2932;52.400;9.558;2023-04-07T08:28:36;101177.03;;;14.66;42.08
5812;BME280;2932;52.400;9.558;2023-04-07T08:31:03;101176.00;;;14.90;41.83
5812;BME280;2932;52.400;9.558;2023-04-07T08:33:28;101174.75;;;15.23;41.69
5812;BME280;2932;52.400;9.558;2023-04-07T08:35:54;101178.66;;;15.18;41.63
5812;BME280;2932;52.400;9.558;2023-04-07T08:38:19;101181.75;;;15.32;41.39
5812;BME280;2932;52.400;9.558;2023-04-07T08:40:45;101180.72;;;15.56;40.62
5812;BME280;2932;52.400;9.558;2023-04-07T08:43:11;101181.75;;;15.32;41.10
5812;BME280;2932;52.400;9.558;2023-04-07T08:45:39;101183.59;;;15.44;41.54
5812;BME280;2932;52.400;9.558;2023-04-07T08:48:16;101178.19;;;15.51;41.41
5812;BME280;2932;52.400;9.558;2023-04-07T08:50:44;101180.34;;;15.77;40.95
5812;BME280;2932;52.400;9.558;2023-04-07T08:53:12;101176.59;;;15.70;40.56
5812;BME280;2932;52.400;9.558;2023-04-07T08:55:40;101181.59;;;15.80;40.16
5812;BME280;2932;52.400;9.558;2023-04-07T08:58:05;101185.03;;;15.73;40.17
5812;BME280;2932;52.400;9.558;2023-04-07T09:00:37;101179.16;;;15.78;39.59
5812;BME280;2932;52.400;9.558;2023-04-07T09:03:03;101187.91;;;15.96;38.96
5812;BME280;2932;52.400;9.558;2023-04-07T09:05:29;101181.47;;;16.15;39.21
5812;BME280;2932;52.400;9.558;2023-04-07T09:07:55;101183.47;;;16.37;39.27
5812;BME280;2932;52.400;9.558;2023-04-07T09:10:20;101183.50;;;16.18;39.64
5812;BME280;2932;52.400;9.558;2023-04-07T09:12:45;101187.56;;;16.20;39.08
5812;BME280;2932;52.400;9.558;2023-04-07T09:15:11;101198.81;;;16.05;38.56
5812;BME280;2932;52.400;9.558;2023-04-07T09:17:36;101194.41;;;16.04;38.81
5812;BME280;2932;52.400;9.558;2023-04-07T09:20:02;101194.22;;;15.93;39.18
5812;BME280;2932;52.400;9.558;2023-04-07T09:22:39;101195.34;;;16.11;38.88
5812;BME280;2932;52.400;9.558;2023-04-07T09:25:14;101191.66;;;15.84;39.23
5812;BME280;2932;52.400;9.558;2023-04-07T09:27:40;101197.00;;;15.93;38.95
5812;BME280;2932;52.400;9.558;2023-04-07T09:30:13;101196.38;;;16.22;39.21
5812;BME280;2932;52.400;9.558;2023-04-07T09:32:41;101188.78;;;16.23;39.40
5812;BME280;2932;52.400;9.558;2023-04-07T09:35:07;101194.88;;;16.51;39.14
5812;BME280;2932;52.400;9.558;2023-04-07T09:37:33;101187.50;;;16.40;38.73
5812;BME280;2932;52.400;9.558;2023-04-07T09:39:58;101186.06;;;16.26;39.12
5812;BME280;2932;52.400;9.558;2023-04-07T09:42:26;101187.59;;;16.66;39.08
5812;BME280;2932;52.400;9.558;2023-04-07T09:44:54;101184.19;;;16.76;38.87
5812;BME280;2932;52.400;9.558;2023-04-07T09:47:28;101180.47;;;16.95;39.18
5812;BME280;2932;52.400;9.558;2023-04-07T09:49:54;101179.56;;;17.14;38.52
5812;BME280;2932;52.400;9.558;2023-04-07T09:52:50;101177.38;;;17.30;37.92
5812;BME280;2932;52.400;9.558;2023-04-07T09:55:19;101184.16;;;17.29;37.83
5812;BME280;2932;52.400;9.558;2023-04-07T09:57:45;101184.03;;;17.48;37.53
5812;BME280;2932;52.400;9.558;2023-04-07T10:00:12;101185.56;;;17.72;37.97
5812;BME280;2932;52.400;9.558;2023-04-07T10:02:37;101179.69;;;17.81;37.45
5812;BME280;2932;52.400;9.558;2023-04-07T10:05:03;101173.78;;;17.89;36.86
5812;BME280;2932;52.400;9.558;2023-04-07T10:07:28;101182.59;;;17.91;37.40
5812;BME280;2932;52.400;9.558;2023-04-07T10:09:56;101184.22;;;17.92;36.52
5812;BME280;2932;52.400;9.558;2023-04-07T10:12:21;101180.19;;;17.90;36.58
5812;BME280;2932;52.400;9.558;2023-04-07T10:14:49;101182.13;;;17.86;36.71
5812;BME280;2932;52.400;9.558;2023-04-07T10:17:17;101182.09;;;17.82;37.05
5812;BME280;2932;52.400;9.558;2023-04-07T10:19:44;101183.59;;;18.10;36.92
5812;BME280;2932;52.400;9.558;2023-04-07T10:22:11;101192.41;;;18.12;36.16
5812;BME280;2932;52.400;9.558;2023-04-07T10:27:08;101192.63;;;18.29;36.02
5812;BME280;2932;52.400;9.558;2023-04-07T10:29:40;101192.13;;;18.20;36.05
5812;BME280;2932;52.400;9.558;2023-04-07T10:32:06;101189.78;;;18.26;35.35
5812;BME280;2932;52.400;9.558;2023-04-07T10:37:16;101197.63;;;18.13;35.73
5812;BME280;2932;52.400;9.558;2023-04-07T10:39:45;101185.50;;;18.39;35.51
5812;BME280;2932;52.400;9.558;2023-04-07T10:45:07;101197.84;;;18.72;35.41
5812;BME280;2932;52.400;9.558;2023-04-07T10:47:33;101189.16;;;18.91;35.19
5812;BME280;2932;52.400;9.558;2023-04-07T10:50:20;101202.25;;;18.73;35.58
5812;BME280;2932;52.400;9.558;2023-04-07T10:52:47;101192.69;;;18.40;35.48
5812;BME280;2932;52.400;9.558;2023-04-07T11:03:39;101185.50;;;19.45;35.06
5812;BME280;2932;52.400;9.558;2023-04-07T11:06:12;101184.56;;;19.92;34.85
5812;BME280;2932;52.400;9.558;2023-04-07T11:08:46;101189.50;;;20.45;35.04
5812;BME280;2932;52.400;9.558;2023-04-07T11:11:14;101181.84;;;20.46;34.91
5812;BME280;2932;52.400;9.558;2023-04-07T11:13:40;101178.69;;;20.72;35.00
5812;BME280;2932;52.400;9.558;2023-04-07T11:16:06;101174.22;;;21.10;34.76
5812;BME280;2932;52.400;9.558;2023-04-07T11:18:33;101177.84;;;21.04;34.04
5812;BME280;2932;52.400;9.558;2023-04-07T11:20:59;101175.84;;;20.90;34.24
5812;BME280;2932;52.400;9.558;2023-04-07T11:23:25;101182.28;;;20.76;34.21
5812;BME280;2932;52.400;9.558;2023-04-07T11:26:01;101182.28;;;20.58;34.39
5812;BME280;2932;52.400;9.558;2023-04-07T11:28:27;101177.44;;;20.80;34.01
5812;BME280;2932;52.400;9.558;2023-04-07T11:30:54;101176.25;;;20.88;34.40
5812;BME280;2932;52.400;9.558;2023-04-07T11:33:25;101184.69;;;20.85;33.68
5812;BME280;2932;52.400;9.558;2023-04-07T11:35:56;101186.31;;;20.75;33.59
5812;BME280;2932;52.400;9.558;2023-04-07T11:38:25;101181.47;;;20.86;33.44
5812;BME280;2932;52.400;9.558;2023-04-07T11:40:51;101185.50;;;20.64;33.98
5812;BME280;2932;52.400;9.558;2023-04-07T11:43:25;101185.88;;;21.12;33.58
5812;BME280;2932;52.400;9.558;2023-04-07T11:48:30;101182.66;;;20.96;32.65
5812;BME280;2932;52.400;9.558;2023-04-07T11:50:56;101182.22;;;21.29;33.07
5812;BME280;2932;52.400;9.558;2023-04-07T11:53:29;101174.97;;;21.46;32.68
5812;BME280;2932;52.400;9.558;2023-04-07T11:56:15;101190.56;;;21.61;32.90
5812;BME280;2932;52.400;9.558;2023-04-07T11:58:52;101182.75;;;22.05;32.37
5812;BME280;2932;52.400;9.558;2023-04-07T12:01:18;101193.94;;;22.22;32.32
5812;BME280;2932;52.400;9.558;2023-04-07T12:04:13;101182.00;;;21.97;31.52
5812;BME280;2932;52.400;9.558;2023-04-07T12:06:40;101178.81;;;21.88;31.95
5812;BME280;2932;52.400;9.558;2023-04-07T12:09:08;101181.44;;;21.33;31.57
5812;BME280;2932;52.400;9.558;2023-04-07T12:11:34;101190.25;;;21.49;32.07
5812;BME280;2932;52.400;9.558;2023-04-07T12:14:00;101183.69;;;21.73;31.87
5812;BME280;2932;52.400;9.558;2023-04-07T12:16:29;101188.91;;;21.82;31.89
5812;BME280;2932;52.400;9.558;2023-04-07T12:18:54;101195.56;;;22.20;31.95
5812;BME280;2932;52.400;9.558;2023-04-07T12:21:20;101189.44;;;22.36;32.20
5812;BME280;2932;52.400;9.558;2023-04-07T12:23:46;101196.16;;;22.52;32.61
5812;BME280;2932;52.400;9.558;2023-04-07T12:26:11;101187.16;;;22.68;31.88
5812;BME280;2932;52.400;9.558;2023-04-07T12:28:37;101190.28;;;22.84;31.88
5812;BME280;2932;52.400;9.558;2023-04-07T12:31:03;101198.75;;;22.81;31.33
5812;BME280;2932;52.400;9.558;2023-04-07T12:33:29;101183.13;;;23.17;31.66
5812;BME280;2932;52.400;9.558;2023-04-07T12:35:56;101189.47;;;23.63;31.10
5812;BME280;2932;52.400;9.558;2023-04-07T12:38:22;101190.94;;;23.40;31.84
5812;BME280;2932;52.400;9.558;2023-04-07T12:40:47;101196.47;;;23.51;31.62
5812;BME280;2932;52.400;9.558;2023-04-07T12:43:12;101184.22;;;23.65;31.96
5812;BME280;2932;52.400;9.558;2023-04-07T12:45:38;101200.53;;;23.50;30.94
5812;BME280;2932;52.400;9.558;2023-04-07T12:48:03;101205.44;;;23.42;31.36
5812;BME280;2932;52.400;9.558;2023-04-07T12:50:29;101198.88;;;23.52;30.36
5812;BME280;2932;52.400;9.558;2023-04-07T12:52:54;101198.41;;;23.20;30.73
5812;BME280;2932;52.400;9.558;2023-04-07T12:55:20;101191.69;;;23.44;31.27
5812;BME280;2932;52.400;9.558;2023-04-07T12:57:46;101183.09;;;24.19;30.79
5812;BME280;2932;52.400;9.558;2023-04-07T13:00:12;101199.66;;;23.90;31.06
5812;BME280;2932;52.400;9.558;2023-04-07T13:02:38;101206.53;;;23.55;30.53
5812;BME280;2932;52.400;9.558;2023-04-07T13:05:03;101194.34;;;23.62;30.44
5812;BME280;2932;52.400;9.558;2023-04-07T13:07:30;101183.94;;;23.55;30.54
5812;BME280;2932;52.400;9.558;2023-04-07T13:09:55;101189.41;;;23.70;31.25
5812;BME280;2932;52.400;9.558;2023-04-07T13:12:21;101195.72;;;23.81;30.24
5812;BME280;2932;52.400;9.558;2023-04-07T13:14:47;101189.47;;;24.27;30.50
5812;BME280;2932;52.400;9.558;2023-04-07T13:17:12;101186.59;;;24.31;29.76
5812;BME280;2932;52.400;9.558;2023-04-07T13:19:37;101189.59;;;24.70;29.77
5812;BME280;2932;52.400;9.558;2023-04-07T13:22:04;101185.56;;;24.44;29.84
5812;BME280;2932;52.400;9.558;2023-04-07T13:24:29;101191.06;;;24.55;30.00
5812;BME280;2932;52.400;9.558;2023-04-07T13:26:55;101182.78;;;24.41;30.10
5812;BME280;2932;52.400;9.558;2023-04-07T13:29:22;101185.84;;;24.77;30.46
5812;BME280;2932;52.400;9.558;2023-04-07T13:31:47;101182.66;;;24.75;30.00
5812;BME280;2932;52.400;9.558;2023-04-07T13:34:13;101187.69;;;24.64;29.90
5812;BME280;2932;52.400;9.558;2023-04-07T13:36:40;101190.69;;;25.03;30.00